Clover Valley, Nevada Weather observations

Data are for 10 minute period ending at time listed.
 Day   Time   Solar   Ave.   Ave.  Ave.  Vector  Max.   Baro.   Total    
  of    of     Rad.   Air    Rel.  Wind   Wind   Wind  Press.  Precip.   
Year   Day            Temp.  Hum.  Speed  Dir.   Gust                    
2017   (PST)  Kw/m2    F      %     mph   deg.    mph    mb.     in.     
-------------------------------------------------------------------------
 179    5:20   0.00   45.5    65    2.7    41     4.7   824.2    0.00 
 179    5:30   0.02   47.7    61    2.6    38     5.3   824.4    0.00 
 179    5:40   0.17   49.9    54    3.3    18     6.3   824.4    0.00 
 179    5:50   0.20   51.1    51    3.7    54     7.0   824.4    0.00 
 179    6:00   0.23   53.3    48    4.6   108     6.5   824.5    0.00 
 179    6:10   0.26   55.4    42    4.7   116     7.0   824.6    0.00 
 179    6:20   0.29   58.0    40    3.1   110     5.5   824.7    0.00 
 179    6:30   0.33   60.3    35    3.3   109     6.4   824.8    0.00 
 179    6:40   0.36   61.4    30    3.8   132     6.2   824.8    0.00 
 179    6:50   0.39   62.5    29    4.1   126     6.1   824.8    0.00 
 179    7:00   0.42   64.3    27    3.2   117     5.7   824.8    0.00 
 179    7:10   0.45   66.7    24    1.4    99     3.4   824.9    0.00 
 179    7:20   0.48   69.1    23    1.1    28     2.8   824.9    0.00 
 179    7:30   0.47   70.0    23    1.8   348     3.8   824.9    0.00 
 179    7:40   0.54   70.1    24    3.5   296     7.5   824.9    0.00 
 179    7:50   0.57   70.3    25    5.2   332     9.9   824.9    0.00 
 179    8:00   0.60   70.4    26    5.7   336    10.3   824.9    0.00 
 179    8:10   0.62   70.2    26    6.3   339    11.2   824.9    0.00 
 179    8:20   0.64   70.5    25    7.2   317    11.4   824.8    0.00 
 179    8:30   0.63   71.8    24    7.2   320    12.0   824.8    0.00 
 179    8:40   0.69   72.8    24    6.9   327    11.1   824.7    0.00 
 179    8:50   0.71   73.3    22    7.2   341    11.8   824.7    0.00 
 179    9:00   0.74   73.4    21    6.0   326    10.5   824.7    0.00 
 179    9:10   0.43   74.2    24    6.6   273    13.1   824.6    0.00 
 179    9:20   0.71   74.7    24    6.6   257    11.0   824.6    0.00 
 179    9:30   0.80   75.4    23    6.2   250    11.2   824.6    0.00 
 179    9:40   0.82   75.5    22    5.5   242    17.3   824.6    0.00 
 179    9:50   0.83   75.0    25   11.9   239    18.3   824.6    0.00 
 179   10:00   0.85   74.8    24   11.8   256    19.5   824.7    0.00 
 179   10:10   0.87   75.3    24    9.9   244    15.0   824.8    0.00 
 179   10:20   0.89   75.0    24   12.2   258    18.0   824.8    0.00 
 179   10:30   0.92   75.9    21    7.2   205    13.3   824.8    0.00 
 179   10:40   0.96   75.6    24   13.2   256    21.3   824.8    0.00 
 179   10:50   0.98   75.9    23   12.7   237    21.9   824.7    0.00 
 179   11:00   0.89   76.3    23   11.4   254    21.9   824.7    0.00 
 179   11:10   0.90   76.5    21   12.3   277    19.1   824.6    0.00 
 179   11:20   0.64   76.4    18    8.6   300    13.2   824.6    0.00 
 179   11:30   0.76   76.0    20   11.7   271    20.5   824.6    0.00 
 179   11:40   0.90   76.6    19   13.9   259    24.8   824.6    0.00 
 179   11:50   0.96   76.7    20   14.7   244    21.5   824.6    0.00 
 179   12:00   0.94   77.0    20   11.6   238    22.6   824.6    0.00 
 179   12:10   1.00   76.9    19   15.0   254    24.5   824.6    0.00 
 179   12:20   0.98   76.9    21   13.5   243    21.1   824.6    0.00 
 179   12:30   0.89   77.0    20   13.3   260    25.1   824.5    0.00 
 179   12:40   0.90   77.6    20   13.5   270    25.3   824.5    0.00 
 179   12:50   0.95   78.1    18   12.2   252    22.4   824.4    0.00 
 179   13:00   0.96   78.0    20   15.4   256    24.5   824.4    0.00 
 179   13:10   0.94   78.0    20   13.4   249    26.1   824.3    0.00 
 179   13:20   0.90   77.9    20   14.7   248    30.1   824.1    0.00 
 179   13:30   0.90   77.3    21   15.9   244    27.6   824.1    0.00 
 179   13:40   0.92   78.0    21   15.7   234    24.9   823.9    0.00 
 179   13:50   0.90   78.2    19   14.6   265    24.8   824.0    0.00 
 179   14:00   0.87   78.5    18   14.6   264    23.5   824.0    0.00 
 179   14:10   0.81   78.7    19   14.4   254    24.5   823.9    0.00 
 179   14:20   0.79   78.4    16   14.8   278    27.8   823.9    0.00 
 179   14:30   0.78   78.7    17   14.9   268    27.2   823.9    0.00 
 179   14:40   0.73   78.6    17   16.3   260    28.8   823.8    0.00 
 179   14:50   0.72   78.0    17   17.6   255    27.5   823.8    0.00 
 179   15:00   0.61   77.4    19   11.9   244    20.8   823.8    0.00 
 179   15:10   0.67   78.5    18   12.9   285    22.6   823.8    0.00 
 179   15:20   0.68   79.2    17    9.8   258    25.1   823.7    0.00 
 179   15:30   0.62   79.2    16   11.7   263    24.8   823.7    0.00 
 179   15:40   0.61   78.7    15   13.6   306    28.6   823.7    0.00 
 179   15:50   0.56   78.7    15   10.3   292    22.5   823.8    0.00 
 179   16:00   0.54   78.6    15   12.1   278    24.0   823.7    0.00 
 179   16:10   0.52   78.4    15   10.6   281    17.8   823.7    0.00 
 179   16:20   0.50   78.0    17   12.6   266    21.2   823.8    0.00 
 179   16:30   0.46   77.8    17   12.4   252    20.6   823.7    0.00 
 179   16:40   0.42   77.3    16   15.2   273    24.9   823.7    0.00 
 179   16:50   0.40   78.1    15    7.1   279    16.5   823.8    0.00 
 179   17:00   0.36   77.3    16   12.0   254    21.0   823.9    0.00 
 179   17:10   0.35   76.6    16   14.3   263    28.6   824.0    0.00 
 179   17:20   0.31   77.1    16   10.9   271    19.6   824.0    0.00 
 179   17:30   0.26   76.5    16    9.6   271    16.3   824.1    0.00 
 179   17:40   0.24   76.4    15    9.4   281    14.6   824.1    0.00 
 179   17:50   0.17   76.3    15    8.8   295    16.1   824.2    0.00 
 179   18:00   0.17   75.4    16   11.2   275    20.5   824.3    0.00 
 179   18:10   0.11   75.5    16    5.7   289    12.4   824.3    0.00 
 179   18:20   0.04   73.6    17    7.3   309    13.2   824.5    0.00 
 179   18:30   0.04   72.5    18    3.5   328     7.3   824.5    0.00 
 179   18:40   0.04   72.3    19    5.8   302     9.2   824.6    0.00 
 179   18:50   0.02   70.4    22    4.9   297     8.5   824.7    0.00 
 179   19:00   0.01   70.9    20    5.7   306    10.6   824.7    0.00 
 179   19:10   0.01   69.8    22    4.8   280     7.2   824.8    0.00 
 179   19:20   0.01   68.7    24    2.4   296     5.0   824.9    0.00 
 179   19:30   0.00   67.3    24    1.6   285     3.4   825.0    0.00 
 179   19:40   0.00   67.9    24    2.5   295     4.7   825.0    0.00 
 179   19:50   0.00   68.1    22    1.7   260     3.3   825.1    0.00 
 179   20:00   0.00   69.3    22    2.3   325     6.9   825.1    0.00 
 179   20:10   0.00   66.3    25    3.8   302     5.3   825.1    0.00 
 179   20:20   0.00   65.3    26    5.2   277     8.1   825.2    0.00 
 179   20:30   0.00   67.7    24    3.6   280     9.3   825.2    0.00 
 179   20:40   0.00   67.0    24    5.4   260     9.5   825.4    0.00 
 179   20:50   0.00   67.0    23    2.2   230     7.5   825.5    0.00 
 179   21:00   0.00   65.8    26    2.9    24     5.4   825.5    0.00 
 179   21:10   0.00   64.4    29    3.2   223     4.8   825.5    0.00 
 179   21:20   0.00   64.9    25    3.8   258     6.6   825.5    0.00 
 179   21:30   0.00   65.6    25    2.9   308     7.3   825.5    0.00 
 179   21:40   0.00   67.1    24    4.3   358     8.8   825.5    0.00 
 179   21:50   0.00   65.2    22    9.3   350    16.6   825.5    0.00 
 179   22:00   0.00   66.5    19   10.5     1    15.6   825.6    0.00 
 179   22:10   0.00   65.3    21    9.7   352    15.0   825.7    0.00 
 179   22:20   0.00   62.5    27    7.8   332    12.3   825.8    0.00 
 179   22:30   0.00   62.1    25    8.9   337    11.4   825.8    0.00 
 179   22:40   0.00   63.9    20    9.0   345    12.5   825.8    0.00 
 179   22:50   0.00   62.5    24    6.4   339    10.7   825.9    0.00 
 179   23:00   0.00   59.3    32    5.3   332     7.7   826.0    0.00 
 179   23:10   0.00   56.2    38    5.0   298     6.9   826.0    0.00 
 179   23:20   0.00   54.7    40    5.6   318     7.8   826.0    0.00 
 179   23:30   0.00   54.0    40    7.1   319    10.2   826.1    0.00 
 179   23:40   0.00   55.3    37    4.8   312     8.6   826.2    0.00 
 179   23:50   0.00   53.1    39    1.6   306     5.0   826.2    0.00 
 180    0:00   0.00   51.8    44    1.9   218     3.3   826.2    0.00 
 180    0:10   0.00   51.2    44    1.1   324     2.8   826.2    0.00 
 180    0:20   0.00   51.0    44    1.1    26     2.0   826.1    0.00 
 180    0:30   0.00   49.8    46    2.1   331     5.1   826.2    0.00 
 180    0:40   0.00   50.1    46    2.8   335     5.5   826.3    0.00 
 180    0:50   0.00   48.6    52    3.0   111     7.4   826.3    0.00 
 180    1:00   0.00   51.3    47    3.7    24     5.5   826.3    0.00 
 180    1:10   0.00   49.1    50    3.8    86     5.3   826.4    0.00 
 180    1:20   0.00   48.7    49    3.7    28     4.5   826.4    0.00 
 180    1:30   0.00   47.0    52    2.5   132     3.8   826.5    0.00 
 180    1:40   0.00   47.4    49    1.1   114     2.1   826.5    0.00 
 180    1:50   0.00   47.7    49    2.5   113     3.8   826.3    0.00 
 180    2:00   0.00   45.8    55    2.2    80     3.4   826.3    0.00 
 180    2:10   0.00   44.6    61    3.5    38     5.3   826.3    0.00 
 180    2:20   0.00   47.1    57    3.2     1     4.2   826.4    0.00 
 180    2:30   0.00   44.2    62    3.5   306     5.2   826.5    0.00 
 180    2:40   0.00   41.6    65    2.8   266     4.1   826.5    0.00 
 180    2:50   0.00   41.3    64    2.5   316     3.7   826.6    0.00 
 180    3:00   0.00   41.5    69    2.2   306     3.4   826.7    0.00 
 180    3:10   0.00   42.2    66    2.0   305     3.1   826.9    0.00 
 180    3:20   0.00   40.8    69    2.9   343     4.5   826.9    0.00 
 180    3:30   0.00   39.8    73    3.5   345     4.6   827.0    0.00 
 180    3:40   0.00   39.5    72    3.9   325     5.6   827.1    0.00 
 180    3:50   0.00   38.7    77    2.8   334     4.2   827.2    0.00 
 180    4:00   0.00   38.9    79    3.6   341     5.2   827.3    0.00 
 180    4:10   0.00   39.1    80    4.1   346     5.7   827.4    0.00 
 180    4:20   0.01   39.1    78    2.9   338     4.4   827.5    0.00 
 180    4:30   0.02   39.5    74    3.4   338     4.7   827.6    0.00 
 180    4:40   0.03   40.3    69    3.6   340     4.9   827.7    0.00 
 180    4:50   0.05   41.0    68    3.2   313     4.9   827.8    0.00 
 180    5:00   0.07   42.1    68    3.6   302     5.2   827.8    0.00 
 180    5:10   0.10   44.9    62    1.0   340     2.4   827.8    0.00 

Return to Clover Valley graphs page.


Western Regional Climate Center,wrcc@dri.edu